sensor_id;sensor_type;location;lat;lon;timestamp;P1;durP1;ratioP1;P2;durP2;ratioP2
59336;SDS011;45115;52.002;4.686;2022-08-04T00:00:14;8.25;;;4.35;;
59336;SDS011;45115;52.002;4.686;2022-08-04T00:02:47;9.25;;;4.57;;
59336;SDS011;45115;52.002;4.686;2022-08-04T00:05:23;7.25;;;4.22;;
59336;SDS011;45115;52.002;4.686;2022-08-04T00:07:58;7.47;;;4.22;;
59336;SDS011;45115;52.002;4.686;2022-08-04T00:10:31;8.40;;;4.97;;
59336;SDS011;45115;52.002;4.686;2022-08-04T00:13:01;12.30;;;5.47;;
59336;SDS011;45115;52.002;4.686;2022-08-04T00:15:29;9.47;;;4.97;;
59336;SDS011;45115;52.002;4.686;2022-08-04T00:17:59;9.40;;;5.45;;
59336;SDS011;45115;52.002;4.686;2022-08-04T00:20:28;9.60;;;5.05;;
59336;SDS011;45115;52.002;4.686;2022-08-04T00:22:57;9.65;;;5.82;;
59336;SDS011;45115;52.002;4.686;2022-08-04T00:25:25;12.98;;;5.18;;
59336;SDS011;45115;52.002;4.686;2022-08-04T00:27:52;9.68;;;4.72;;
59336;SDS011;45115;52.002;4.686;2022-08-04T00:30:20;9.10;;;4.93;;
59336;SDS011;45115;52.002;4.686;2022-08-04T00:32:47;7.35;;;4.35;;
59336;SDS011;45115;52.002;4.686;2022-08-04T00:35:15;9.90;;;5.65;;
59336;SDS011;45115;52.002;4.686;2022-08-04T00:37:42;11.35;;;5.80;;
59336;SDS011;45115;52.002;4.686;2022-08-04T00:40:12;8.88;;;5.57;;
59336;SDS011;45115;52.002;4.686;2022-08-04T00:42:48;10.18;;;5.18;;
59336;SDS011;45115;52.002;4.686;2022-08-04T00:45:40;9.20;;;4.50;;
59336;SDS011;45115;52.002;4.686;2022-08-04T00:48:21;8.93;;;4.85;;
59336;SDS011;45115;52.002;4.686;2022-08-04T00:50:59;8.63;;;4.40;;
59336;SDS011;45115;52.002;4.686;2022-08-04T00:53:39;7.50;;;4.03;;
59336;SDS011;45115;52.002;4.686;2022-08-04T00:56:26;10.98;;;6.25;;
59336;SDS011;45115;52.002;4.686;2022-08-04T00:59:09;10.00;;;4.85;;
59336;SDS011;45115;52.002;4.686;2022-08-04T01:01:57;8.15;;;4.28;;
59336;SDS011;45115;52.002;4.686;2022-08-04T01:04:28;9.85;;;4.72;;
59336;SDS011;45115;52.002;4.686;2022-08-04T01:07:30;10.05;;;5.35;;
59336;SDS011;45115;52.002;4.686;2022-08-04T01:10:12;9.88;;;5.18;;
59336;SDS011;45115;52.002;4.686;2022-08-04T01:12:54;7.38;;;4.30;;
59336;SDS011;45115;52.002;4.686;2022-08-04T01:15:38;7.22;;;4.25;;
59336;SDS011;45115;52.002;4.686;2022-08-04T01:18:12;7.97;;;4.78;;
59336;SDS011;45115;52.002;4.686;2022-08-04T01:20:47;11.25;;;6.18;;
59336;SDS011;45115;52.002;4.686;2022-08-04T01:23:44;13.52;;;6.25;;
59336;SDS011;45115;52.002;4.686;2022-08-04T01:26:27;9.90;;;5.57;;
59336;SDS011;45115;52.002;4.686;2022-08-04T01:29:09;8.88;;;5.15;;
59336;SDS011;45115;52.002;4.686;2022-08-04T01:31:40;10.32;;;5.85;;
59336;SDS011;45115;52.002;4.686;2022-08-04T01:34:23;10.75;;;5.78;;
59336;SDS011;45115;52.002;4.686;2022-08-04T01:36:56;11.20;;;5.32;;
59336;SDS011;45115;52.002;4.686;2022-08-04T01:39:26;13.13;;;6.60;;
59336;SDS011;45115;52.002;4.686;2022-08-04T01:42:08;11.57;;;5.93;;
59336;SDS011;45115;52.002;4.686;2022-08-04T01:44:39;14.45;;;7.53;;
59336;SDS011;45115;52.002;4.686;2022-08-04T01:47:07;10.95;;;6.30;;
59336;SDS011;45115;52.002;4.686;2022-08-04T01:49:34;12.02;;;6.30;;
59336;SDS011;45115;52.002;4.686;2022-08-04T01:52:04;10.73;;;5.72;;
59336;SDS011;45115;52.002;4.686;2022-08-04T01:54:34;11.73;;;5.50;;
59336;SDS011;45115;52.002;4.686;2022-08-04T01:57:04;9.70;;;5.38;;
59336;SDS011;45115;52.002;4.686;2022-08-04T01:59:31;10.60;;;6.00;;
59336;SDS011;45115;52.002;4.686;2022-08-04T02:02:02;13.45;;;7.30;;
59336;SDS011;45115;52.002;4.686;2022-08-04T02:04:29;10.82;;;6.10;;
59336;SDS011;45115;52.002;4.686;2022-08-04T02:06:59;11.65;;;6.05;;
59336;SDS011;45115;52.002;4.686;2022-08-04T02:09:36;13.35;;;7.18;;
59336;SDS011;45115;52.002;4.686;2022-08-04T02:12:08;11.75;;;6.30;;
59336;SDS011;45115;52.002;4.686;2022-08-04T02:14:44;12.63;;;5.90;;
59336;SDS011;45115;52.002;4.686;2022-08-04T02:17:23;14.20;;;7.22;;
59336;SDS011;45115;52.002;4.686;2022-08-04T02:20:00;14.23;;;6.63;;
59336;SDS011;45115;52.002;4.686;2022-08-04T02:22:32;11.82;;;6.43;;
59336;SDS011;45115;52.002;4.686;2022-08-04T02:25:02;12.43;;;7.03;;
59336;SDS011;45115;52.002;4.686;2022-08-04T02:27:33;11.57;;;6.80;;
59336;SDS011;45115;52.002;4.686;2022-08-04T02:30:19;13.32;;;7.32;;
59336;SDS011;45115;52.002;4.686;2022-08-04T02:32:48;15.82;;;7.97;;
59336;SDS011;45115;52.002;4.686;2022-08-04T02:35:21;14.35;;;7.15;;
59336;SDS011;45115;52.002;4.686;2022-08-04T02:37:53;12.73;;;7.15;;
59336;SDS011;45115;52.002;4.686;2022-08-04T02:40:26;14.00;;;6.95;;
59336;SDS011;45115;52.002;4.686;2022-08-04T02:42:56;11.63;;;6.10;;
59336;SDS011;45115;52.002;4.686;2022-08-04T02:45:23;10.73;;;5.53;;
59336;SDS011;45115;52.002;4.686;2022-08-04T02:47:53;13.18;;;6.85;;
59336;SDS011;45115;52.002;4.686;2022-08-04T02:50:22;14.20;;;6.50;;
59336;SDS011;45115;52.002;4.686;2022-08-04T02:52:51;12.65;;;6.75;;
59336;SDS011;45115;52.002;4.686;2022-08-04T02:55:18;11.00;;;6.18;;
59336;SDS011;45115;52.002;4.686;2022-08-04T02:57:45;9.55;;;5.40;;
59336;SDS011;45115;52.002;4.686;2022-08-04T03:00:15;10.82;;;5.07;;
59336;SDS011;45115;52.002;4.686;2022-08-04T03:02:48;8.40;;;5.28;;
59336;SDS011;45115;52.002;4.686;2022-08-04T03:05:21;8.57;;;5.55;;
59336;SDS011;45115;52.002;4.686;2022-08-04T03:11:09;13.18;;;7.00;;
59336;SDS011;45115;52.002;4.686;2022-08-04T03:17:13;12.82;;;7.20;;
59336;SDS011;45115;52.002;4.686;2022-08-04T03:20:12;15.30;;;7.50;;
59336;SDS011;45115;52.002;4.686;2022-08-04T03:22:58;14.13;;;7.55;;
59336;SDS011;45115;52.002;4.686;2022-08-04T03:34:45;13.35;;;6.90;;
59336;SDS011;45115;52.002;4.686;2022-08-04T03:37:32;11.30;;;6.22;;
59336;SDS011;45115;52.002;4.686;2022-08-04T03:40:15;13.70;;;6.22;;
59336;SDS011;45115;52.002;4.686;2022-08-04T03:46:07;9.52;;;5.40;;
59336;SDS011;45115;52.002;4.686;2022-08-04T03:51:56;10.80;;;6.18;;
59336;SDS011;45115;52.002;4.686;2022-08-04T03:55:01;9.50;;;5.65;;
59336;SDS011;45115;52.002;4.686;2022-08-04T03:57:51;9.63;;;5.32;;
59336;SDS011;45115;52.002;4.686;2022-08-04T04:00:37;8.98;;;5.07;;
59336;SDS011;45115;52.002;4.686;2022-08-04T04:03:23;10.25;;;4.47;;
59336;SDS011;45115;52.002;4.686;2022-08-04T04:06:13;9.60;;;5.20;;
59336;SDS011;45115;52.002;4.686;2022-08-04T04:09:01;8.93;;;5.15;;
59336;SDS011;45115;52.002;4.686;2022-08-04T04:11:53;11.18;;;5.43;;
59336;SDS011;45115;52.002;4.686;2022-08-04T04:15:08;9.60;;;5.10;;
59336;SDS011;45115;52.002;4.686;2022-08-04T04:17:50;11.55;;;5.22;;
59336;SDS011;45115;52.002;4.686;2022-08-04T04:20:37;10.32;;;4.75;;
59336;SDS011;45115;52.002;4.686;2022-08-04T04:23:25;8.30;;;4.60;;
59336;SDS011;45115;52.002;4.686;2022-08-04T04:26:02;9.43;;;4.57;;
59336;SDS011;45115;52.002;4.686;2022-08-04T04:28:54;10.70;;;4.95;;
59336;SDS011;45115;52.002;4.686;2022-08-04T04:31:32;13.50;;;5.55;;
59336;SDS011;45115;52.002;4.686;2022-08-04T04:34:11;9.63;;;5.32;;
59336;SDS011;45115;52.002;4.686;2022-08-04T04:36:49;9.00;;;5.85;;
59336;SDS011;45115;52.002;4.686;2022-08-04T04:39:34;11.48;;;5.35;;
59336;SDS011;45115;52.002;4.686;2022-08-04T04:42:29;6.72;;;4.40;;
59336;SDS011;45115;52.002;4.686;2022-08-04T04:45:16;9.55;;;5.32;;
59336;SDS011;45115;52.002;4.686;2022-08-04T04:47:57;10.05;;;4.85;;
59336;SDS011;45115;52.002;4.686;2022-08-04T04:50:35;9.43;;;4.65;;
59336;SDS011;45115;52.002;4.686;2022-08-04T04:53:15;9.15;;;4.57;;
59336;SDS011;45115;52.002;4.686;2022-08-04T04:55:46;10.15;;;4.90;;
59336;SDS011;45115;52.002;4.686;2022-08-04T04:58:18;10.07;;;4.65;;
59336;SDS011;45115;52.002;4.686;2022-08-04T05:00:53;8.77;;;4.35;;
59336;SDS011;45115;52.002;4.686;2022-08-04T05:03:39;8.63;;;4.55;;
59336;SDS011;45115;52.002;4.686;2022-08-04T05:06:42;7.97;;;3.88;;
59336;SDS011;45115;52.002;4.686;2022-08-04T05:09:23;8.18;;;4.15;;
59336;SDS011;45115;52.002;4.686;2022-08-04T05:15:05;9.07;;;4.53;;
59336;SDS011;45115;52.002;4.686;2022-08-04T05:17:35;12.60;;;4.78;;
59336;SDS011;45115;52.002;4.686;2022-08-04T05:20:06;11.27;;;5.32;;
59336;SDS011;45115;52.002;4.686;2022-08-04T05:22:36;9.75;;;4.80;;
59336;SDS011;45115;52.002;4.686;2022-08-04T05:25:07;10.30;;;5.37;;
59336;SDS011;45115;52.002;4.686;2022-08-04T05:27:40;10.88;;;4.45;;
59336;SDS011;45115;52.002;4.686;2022-08-04T05:30:11;11.18;;;5.60;;
59336;SDS011;45115;52.002;4.686;2022-08-04T05:32:45;10.60;;;4.80;;
59336;SDS011;45115;52.002;4.686;2022-08-04T05:35:19;11.32;;;4.90;;
59336;SDS011;45115;52.002;4.686;2022-08-04T05:37:52;9.98;;;4.60;;
59336;SDS011;45115;52.002;4.686;2022-08-04T05:40:21;11.77;;;5.00;;
59336;SDS011;45115;52.002;4.686;2022-08-04T05:42:49;10.63;;;5.07;;
59336;SDS011;45115;52.002;4.686;2022-08-04T05:45:17;11.02;;;4.90;;
59336;SDS011;45115;52.002;4.686;2022-08-04T05:47:46;14.50;;;5.53;;
59336;SDS011;45115;52.002;4.686;2022-08-04T05:50:13;8.45;;;4.78;;
59336;SDS011;45115;52.002;4.686;2022-08-04T05:52:40;10.63;;;4.63;;
59336;SDS011;45115;52.002;4.686;2022-08-04T05:55:08;8.82;;;5.00;;
59336;SDS011;45115;52.002;4.686;2022-08-04T05:57:37;9.05;;;4.68;;
59336;SDS011;45115;52.002;4.686;2022-08-04T06:00:06;7.60;;;4.18;;
59336;SDS011;45115;52.002;4.686;2022-08-04T06:02:34;12.75;;;4.30;;
59336;SDS011;45115;52.002;4.686;2022-08-04T06:05:04;12.98;;;4.50;;
59336;SDS011;45115;52.002;4.686;2022-08-04T06:07:33;9.53;;;4.00;;
59336;SDS011;45115;52.002;4.686;2022-08-04T06:09:59;9.85;;;4.25;;
59336;SDS011;45115;52.002;4.686;2022-08-04T06:12:29;7.20;;;3.90;;
59336;SDS011;45115;52.002;4.686;2022-08-04T06:15:01;7.30;;;3.65;;
59336;SDS011;45115;52.002;4.686;2022-08-04T06:17:30;5.95;;;3.85;;
59336;SDS011;45115;52.002;4.686;2022-08-04T06:19:59;13.07;;;4.30;;
59336;SDS011;45115;52.002;4.686;2022-08-04T06:22:29;9.57;;;4.25;;
59336;SDS011;45115;52.002;4.686;2022-08-04T06:24:56;9.07;;;3.63;;
59336;SDS011;45115;52.002;4.686;2022-08-04T06:27:25;9.20;;;4.00;;
59336;SDS011;45115;52.002;4.686;2022-08-04T06:29:54;8.43;;;3.60;;
59336;SDS011;45115;52.002;4.686;2022-08-04T06:32:23;7.18;;;3.50;;
59336;SDS011;45115;52.002;4.686;2022-08-04T06:34:53;9.05;;;3.67;;
59336;SDS011;45115;52.002;4.686;2022-08-04T06:37:22;8.50;;;3.45;;
59336;SDS011;45115;52.002;4.686;2022-08-04T06:39:50;6.88;;;3.13;;
59336;SDS011;45115;52.002;4.686;2022-08-04T06:42:20;5.75;;;3.30;;
59336;SDS011;45115;52.002;4.686;2022-08-04T06:44:50;8.05;;;3.33;;
59336;SDS011;45115;52.002;4.686;2022-08-04T06:47:19;8.40;;;3.05;;
59336;SDS011;45115;52.002;4.686;2022-08-04T06:49:48;8.52;;;2.85;;
59336;SDS011;45115;52.002;4.686;2022-08-04T06:52:18;10.20;;;3.33;;
59336;SDS011;45115;52.002;4.686;2022-08-04T06:54:46;10.90;;;3.20;;
59336;SDS011;45115;52.002;4.686;2022-08-04T06:57:15;8.18;;;3.20;;
59336;SDS011;45115;52.002;4.686;2022-08-04T06:59:45;6.50;;;2.80;;
59336;SDS011;45115;52.002;4.686;2022-08-04T07:02:14;7.95;;;2.90;;
59336;SDS011;45115;52.002;4.686;2022-08-04T07:04:45;6.03;;;2.80;;
59336;SDS011;45115;52.002;4.686;2022-08-04T07:07:13;6.30;;;2.90;;
59336;SDS011;45115;52.002;4.686;2022-08-04T07:09:40;5.22;;;2.80;;
59336;SDS011;45115;52.002;4.686;2022-08-04T07:12:07;6.72;;;2.90;;
59336;SDS011;45115;52.002;4.686;2022-08-04T07:14:36;9.63;;;2.95;;
59336;SDS011;45115;52.002;4.686;2022-08-04T07:17:06;5.40;;;2.90;;
59336;SDS011;45115;52.002;4.686;2022-08-04T07:19:34;7.40;;;2.95;;
59336;SDS011;45115;52.002;4.686;2022-08-04T07:22:02;6.30;;;2.90;;
59336;SDS011;45115;52.002;4.686;2022-08-04T07:24:30;5.70;;;2.55;;
59336;SDS011;45115;52.002;4.686;2022-08-04T07:26:57;6.90;;;2.75;;
59336;SDS011;45115;52.002;4.686;2022-08-04T07:29:24;6.78;;;2.90;;
59336;SDS011;45115;52.002;4.686;2022-08-04T07:31:52;8.27;;;3.22;;
59336;SDS011;45115;52.002;4.686;2022-08-04T07:34:20;10.73;;;3.08;;
59336;SDS011;45115;52.002;4.686;2022-08-04T07:36:48;6.88;;;2.70;;
59336;SDS011;45115;52.002;4.686;2022-08-04T07:39:16;5.97;;;2.85;;
59336;SDS011;45115;52.002;4.686;2022-08-04T07:41:43;7.05;;;2.60;;
59336;SDS011;45115;52.002;4.686;2022-08-04T07:44:12;8.07;;;2.78;;
59336;SDS011;45115;52.002;4.686;2022-08-04T07:46:39;7.78;;;2.88;;
59336;SDS011;45115;52.002;4.686;2022-08-04T07:49:08;6.80;;;2.47;;
59336;SDS011;45115;52.002;4.686;2022-08-04T07:51:35;7.28;;;3.30;;
59336;SDS011;45115;52.002;4.686;2022-08-04T07:54:03;4.15;;;2.70;;
59336;SDS011;45115;52.002;4.686;2022-08-04T07:56:32;5.00;;;2.38;;
59336;SDS011;45115;52.002;4.686;2022-08-04T07:59:00;5.25;;;2.50;;
59336;SDS011;45115;52.002;4.686;2022-08-04T08:01:27;4.50;;;2.67;;
59336;SDS011;45115;52.002;4.686;2022-08-04T08:03:55;4.00;;;2.10;;
59336;SDS011;45115;52.002;4.686;2022-08-04T08:06:24;2.33;;;2.10;;
59336;SDS011;45115;52.002;4.686;2022-08-04T08:08:53;4.53;;;2.63;;
59336;SDS011;45115;52.002;4.686;2022-08-04T08:11:19;5.57;;;2.60;;
59336;SDS011;45115;52.002;4.686;2022-08-04T08:13:47;4.97;;;2.60;;
59336;SDS011;45115;52.002;4.686;2022-08-04T08:16:14;4.38;;;2.50;;
59336;SDS011;45115;52.002;4.686;2022-08-04T08:18:42;4.20;;;2.50;;
59336;SDS011;45115;52.002;4.686;2022-08-04T08:21:09;4.50;;;2.50;;
59336;SDS011;45115;52.002;4.686;2022-08-04T08:23:37;5.18;;;2.65;;
59336;SDS011;45115;52.002;4.686;2022-08-04T08:26:05;5.57;;;2.72;;
59336;SDS011;45115;52.002;4.686;2022-08-04T08:28:32;5.63;;;2.90;;
59336;SDS011;45115;52.002;4.686;2022-08-04T08:30:59;7.35;;;3.08;;
59336;SDS011;45115;52.002;4.686;2022-08-04T08:33:26;8.02;;;3.17;;
59336;SDS011;45115;52.002;4.686;2022-08-04T08:35:55;7.40;;;2.88;;
59336;SDS011;45115;52.002;4.686;2022-08-04T08:38:36;5.47;;;3.10;;
59336;SDS011;45115;52.002;4.686;2022-08-04T08:41:13;4.28;;;2.70;;
59336;SDS011;45115;52.002;4.686;2022-08-04T08:43:53;7.43;;;2.83;;
59336;SDS011;45115;52.002;4.686;2022-08-04T08:46:52;5.15;;;2.67;;
59336;SDS011;45115;52.002;4.686;2022-08-04T08:52:34;4.82;;;2.72;;
59336;SDS011;45115;52.002;4.686;2022-08-04T08:55:18;6.22;;;2.78;;
59336;SDS011;45115;52.002;4.686;2022-08-04T08:58:00;4.35;;;2.63;;
59336;SDS011;45115;52.002;4.686;2022-08-04T09:00:40;4.82;;;2.70;;
59336;SDS011;45115;52.002;4.686;2022-08-04T09:03:16;5.20;;;2.85;;
59336;SDS011;45115;52.002;4.686;2022-08-04T09:06:07;7.10;;;2.75;;
59336;SDS011;45115;52.002;4.686;2022-08-04T09:08:49;3.85;;;2.35;;
59336;SDS011;45115;52.002;4.686;2022-08-04T09:11:29;3.97;;;2.42;;
59336;SDS011;45115;52.002;4.686;2022-08-04T09:14:04;3.47;;;2.30;;
59336;SDS011;45115;52.002;4.686;2022-08-04T09:16:39;5.20;;;2.60;;
59336;SDS011;45115;52.002;4.686;2022-08-04T09:19:11;5.32;;;2.40;;
59336;SDS011;45115;52.002;4.686;2022-08-04T09:21:46;5.40;;;2.40;;
59336;SDS011;45115;52.002;4.686;2022-08-04T09:24:19;5.15;;;2.70;;
59336;SDS011;45115;52.002;4.686;2022-08-04T09:26:54;3.95;;;2.75;;
59336;SDS011;45115;52.002;4.686;2022-08-04T09:29:26;5.65;;;2.60;;
59336;SDS011;45115;52.002;4.686;2022-08-04T09:32:03;4.55;;;2.60;;
59336;SDS011;45115;52.002;4.686;2022-08-04T09:34:50;3.75;;;2.42;;
59336;SDS011;45115;52.002;4.686;2022-08-04T09:37:30;5.35;;;2.50;;
59336;SDS011;45115;52.002;4.686;2022-08-04T09:40:01;4.13;;;2.38;;
59336;SDS011;45115;52.002;4.686;2022-08-04T09:42:37;4.35;;;2.60;;
59336;SDS011;45115;52.002;4.686;2022-08-04T09:45:11;3.08;;;2.35;;
59336;SDS011;45115;52.002;4.686;2022-08-04T09:47:45;3.95;;;2.22;;
59336;SDS011;45115;52.002;4.686;2022-08-04T09:50:21;7.72;;;2.88;;
59336;SDS011;45115;52.002;4.686;2022-08-04T09:52:57;3.20;;;2.42;;
59336;SDS011;45115;52.002;4.686;2022-08-04T09:55:33;5.15;;;2.60;;
59336;SDS011;45115;52.002;4.686;2022-08-04T09:58:10;4.15;;;2.50;;
59336;SDS011;45115;52.002;4.686;2022-08-04T10:00:47;2.50;;;2.30;;
59336;SDS011;45115;52.002;4.686;2022-08-04T10:03:16;3.63;;;2.40;;
59336;SDS011;45115;52.002;4.686;2022-08-04T10:05:52;6.38;;;2.53;;
59336;SDS011;45115;52.002;4.686;2022-08-04T10:08:36;5.20;;;2.33;;
59336;SDS011;45115;52.002;4.686;2022-08-04T10:11:20;3.88;;;2.53;;
59336;SDS011;45115;52.002;4.686;2022-08-04T10:16:39;4.20;;;2.30;;
59336;SDS011;45115;52.002;4.686;2022-08-04T10:19:14;2.83;;;2.03;;
59336;SDS011;45115;52.002;4.686;2022-08-04T10:21:52;4.55;;;2.20;;
59336;SDS011;45115;52.002;4.686;2022-08-04T10:24:35;4.50;;;2.15;;
59336;SDS011;45115;52.002;4.686;2022-08-04T10:27:15;3.92;;;2.25;;
59336;SDS011;45115;52.002;4.686;2022-08-04T10:29:48;5.63;;;2.10;;
59336;SDS011;45115;52.002;4.686;2022-08-04T10:32:17;3.28;;;2.15;;
59336;SDS011;45115;52.002;4.686;2022-08-04T10:34:56;4.38;;;2.42;;
59336;SDS011;45115;52.002;4.686;2022-08-04T10:37:28;3.55;;;2.33;;
59336;SDS011;45115;52.002;4.686;2022-08-04T10:40:01;5.03;;;2.15;;
59336;SDS011;45115;52.002;4.686;2022-08-04T10:42:49;4.95;;;2.53;;
59336;SDS011;45115;52.002;4.686;2022-08-04T10:45:24;2.88;;;2.13;;
59336;SDS011;45115;52.002;4.686;2022-08-04T10:48:06;4.45;;;2.47;;
59336;SDS011;45115;52.002;4.686;2022-08-04T10:50:38;2.25;;;2.05;;
59336;SDS011;45115;52.002;4.686;2022-08-04T10:53:08;3.17;;;2.45;;
59336;SDS011;45115;52.002;4.686;2022-08-04T10:55:40;3.88;;;2.38;;
59336;SDS011;45115;52.002;4.686;2022-08-04T10:58:13;3.50;;;2.17;;
59336;SDS011;45115;52.002;4.686;2022-08-04T11:00:45;2.25;;;2.05;;
59336;SDS011;45115;52.002;4.686;2022-08-04T11:03:16;2.45;;;2.25;;
59336;SDS011;45115;52.002;4.686;2022-08-04T11:05:47;3.25;;;2.28;;
59336;SDS011;45115;52.002;4.686;2022-08-04T11:08:19;4.28;;;2.25;;
59336;SDS011;45115;52.002;4.686;2022-08-04T11:10:53;8.48;;;2.58;;
59336;SDS011;45115;52.002;4.686;2022-08-04T11:13:24;3.95;;;2.40;;
59336;SDS011;45115;52.002;4.686;2022-08-04T11:16:01;4.70;;;2.60;;
59336;SDS011;45115;52.002;4.686;2022-08-04T11:18:33;3.47;;;2.40;;
59336;SDS011;45115;52.002;4.686;2022-08-04T11:21:07;3.67;;;2.60;;
59336;SDS011;45115;52.002;4.686;2022-08-04T11:23:39;4.43;;;2.50;;
59336;SDS011;45115;52.002;4.686;2022-08-04T11:26:14;3.38;;;2.55;;
59336;SDS011;45115;52.002;4.686;2022-08-04T11:28:49;4.10;;;2.58;;
59336;SDS011;45115;52.002;4.686;2022-08-04T11:31:24;4.63;;;2.55;;
59336;SDS011;45115;52.002;4.686;2022-08-04T11:33:55;6.07;;;2.85;;
59336;SDS011;45115;52.002;4.686;2022-08-04T11:36:29;5.32;;;2.50;;
59336;SDS011;45115;52.002;4.686;2022-08-04T11:39:02;3.40;;;2.47;;
59336;SDS011;45115;52.002;4.686;2022-08-04T11:41:41;5.40;;;2.83;;
59336;SDS011;45115;52.002;4.686;2022-08-04T11:44:18;4.05;;;2.50;;
59336;SDS011;45115;52.002;4.686;2022-08-04T11:46:53;5.55;;;2.40;;
59336;SDS011;45115;52.002;4.686;2022-08-04T11:49:25;3.25;;;2.63;;
59336;SDS011;45115;52.002;4.686;2022-08-04T11:51:59;4.82;;;2.50;;
59336;SDS011;45115;52.002;4.686;2022-08-04T11:54:29;4.32;;;2.47;;
59336;SDS011;45115;52.002;4.686;2022-08-04T11:56:58;2.63;;;2.13;;
59336;SDS011;45115;52.002;4.686;2022-08-04T11:59:27;4.95;;;3.00;;
59336;SDS011;45115;52.002;4.686;2022-08-04T12:02:05;4.10;;;2.88;;
59336;SDS011;45115;52.002;4.686;2022-08-04T12:04:46;5.22;;;2.42;;
59336;SDS011;45115;52.002;4.686;2022-08-04T12:07:20;4.25;;;2.53;;
59336;SDS011;45115;52.002;4.686;2022-08-04T12:09:57;2.50;;;2.30;;
59336;SDS011;45115;52.002;4.686;2022-08-04T12:12:36;5.00;;;2.38;;
59336;SDS011;45115;52.002;4.686;2022-08-04T12:15:11;2.50;;;2.28;;
59336;SDS011;45115;52.002;4.686;2022-08-04T12:17:48;3.63;;;2.20;;
59336;SDS011;45115;52.002;4.686;2022-08-04T12:20:23;2.85;;;2.47;;
59336;SDS011;45115;52.002;4.686;2022-08-04T12:22:53;2.75;;;2.28;;
59336;SDS011;45115;52.002;4.686;2022-08-04T12:25:22;2.35;;;2.05;;
59336;SDS011;45115;52.002;4.686;2022-08-04T12:27:55;5.03;;;2.70;;
59336;SDS011;45115;52.002;4.686;2022-08-04T12:30:26;4.10;;;2.20;;
59336;SDS011;45115;52.002;4.686;2022-08-04T12:33:00;2.50;;;2.30;;
59336;SDS011;45115;52.002;4.686;2022-08-04T12:35:32;5.55;;;2.50;;
59336;SDS011;45115;52.002;4.686;2022-08-04T12:38:05;2.35;;;2.15;;
59336;SDS011;45115;52.002;4.686;2022-08-04T12:40:35;4.28;;;2.33;;
59336;SDS011;45115;52.002;4.686;2022-08-04T12:43:08;3.67;;;2.35;;
59336;SDS011;45115;52.002;4.686;2022-08-04T12:45:41;3.83;;;2.40;;
59336;SDS011;45115;52.002;4.686;2022-08-04T12:48:10;4.05;;;2.45;;
59336;SDS011;45115;52.002;4.686;2022-08-04T12:50:38;3.65;;;2.13;;
59336;SDS011;45115;52.002;4.686;2022-08-04T12:53:10;3.05;;;2.25;;
59336;SDS011;45115;52.002;4.686;2022-08-04T12:55:42;3.15;;;2.08;;
59336;SDS011;45115;52.002;4.686;2022-08-04T12:58:12;4.72;;;2.30;;
59336;SDS011;45115;52.002;4.686;2022-08-04T13:03:11;3.45;;;2.35;;
59336;SDS011;45115;52.002;4.686;2022-08-04T13:05:41;5.95;;;2.47;;
59336;SDS011;45115;52.002;4.686;2022-08-04T13:08:09;4.22;;;2.28;;
59336;SDS011;45115;52.002;4.686;2022-08-04T13:10:38;3.75;;;2.30;;
59336;SDS011;45115;52.002;4.686;2022-08-04T13:13:11;3.53;;;2.30;;
59336;SDS011;45115;52.002;4.686;2022-08-04T13:15:40;3.90;;;2.33;;
59336;SDS011;45115;52.002;4.686;2022-08-04T13:18:08;4.60;;;2.50;;
59336;SDS011;45115;52.002;4.686;2022-08-04T13:20:37;4.72;;;2.20;;
59336;SDS011;45115;52.002;4.686;2022-08-04T13:23:05;4.65;;;2.50;;
59336;SDS011;45115;52.002;4.686;2022-08-04T13:25:33;4.80;;;2.20;;
59336;SDS011;45115;52.002;4.686;2022-08-04T13:28:04;3.90;;;2.20;;
59336;SDS011;45115;52.002;4.686;2022-08-04T13:30:34;6.53;;;2.30;;
59336;SDS011;45115;52.002;4.686;2022-08-04T13:33:03;2.80;;;2.08;;
59336;SDS011;45115;52.002;4.686;2022-08-04T13:35:33;3.90;;;2.35;;
59336;SDS011;45115;52.002;4.686;2022-08-04T13:38:02;3.47;;;2.20;;
59336;SDS011;45115;52.002;4.686;2022-08-04T13:40:34;3.17;;;2.15;;
59336;SDS011;45115;52.002;4.686;2022-08-04T13:43:02;3.80;;;2.17;;
59336;SDS011;45115;52.002;4.686;2022-08-04T13:45:29;4.93;;;2.58;;
59336;SDS011;45115;52.002;4.686;2022-08-04T13:47:57;5.15;;;2.53;;
59336;SDS011;45115;52.002;4.686;2022-08-04T13:50:26;5.38;;;2.53;;
59336;SDS011;45115;52.002;4.686;2022-08-04T13:52:57;4.90;;;2.53;;
59336;SDS011;45115;52.002;4.686;2022-08-04T13:55:27;5.05;;;2.97;;
59336;SDS011;45115;52.002;4.686;2022-08-04T13:58:00;3.58;;;2.60;;
59336;SDS011;45115;52.002;4.686;2022-08-04T14:00:38;6.78;;;2.65;;
59336;SDS011;45115;52.002;4.686;2022-08-04T14:03:07;4.45;;;2.90;;
59336;SDS011;45115;52.002;4.686;2022-08-04T14:05:36;5.40;;;2.55;;
59336;SDS011;45115;52.002;4.686;2022-08-04T14:08:06;4.60;;;2.50;;
59336;SDS011;45115;52.002;4.686;2022-08-04T14:10:35;6.15;;;2.40;;
59336;SDS011;45115;52.002;4.686;2022-08-04T14:13:02;4.68;;;2.35;;
59336;SDS011;45115;52.002;4.686;2022-08-04T14:15:31;4.63;;;2.50;;
59336;SDS011;45115;52.002;4.686;2022-08-04T14:18:15;3.88;;;2.33;;
59336;SDS011;45115;52.002;4.686;2022-08-04T14:20:56;6.60;;;2.50;;
59336;SDS011;45115;52.002;4.686;2022-08-04T14:23:26;6.65;;;2.30;;
59336;SDS011;45115;52.002;4.686;2022-08-04T14:25:53;4.50;;;2.72;;
59336;SDS011;45115;52.002;4.686;2022-08-04T14:28:26;8.00;;;2.80;;
59336;SDS011;45115;52.002;4.686;2022-08-04T14:31:07;8.05;;;2.67;;
59336;SDS011;45115;52.002;4.686;2022-08-04T14:33:35;2.88;;;2.50;;
59336;SDS011;45115;52.002;4.686;2022-08-04T14:36:04;5.10;;;2.63;;
59336;SDS011;45115;52.002;4.686;2022-08-04T14:38:43;3.75;;;2.30;;
59336;SDS011;45115;52.002;4.686;2022-08-04T14:41:15;4.13;;;2.65;;
59336;SDS011;45115;52.002;4.686;2022-08-04T14:43:43;5.43;;;2.30;;
59336;SDS011;45115;52.002;4.686;2022-08-04T14:48:40;4.07;;;2.40;;
59336;SDS011;45115;52.002;4.686;2022-08-04T14:51:25;3.50;;;2.60;;
59336;SDS011;45115;52.002;4.686;2022-08-04T14:53:53;3.20;;;2.10;;
59336;SDS011;45115;52.002;4.686;2022-08-04T14:56:19;3.13;;;2.33;;
59336;SDS011;45115;52.002;4.686;2022-08-04T14:58:46;5.05;;;2.33;;
59336;SDS011;45115;52.002;4.686;2022-08-04T15:01:24;3.72;;;2.28;;
59336;SDS011;45115;52.002;4.686;2022-08-04T15:03:52;6.50;;;2.40;;
59336;SDS011;45115;52.002;4.686;2022-08-04T15:06:20;4.63;;;2.55;;
59336;SDS011;45115;52.002;4.686;2022-08-04T15:08:51;2.70;;;2.42;;
59336;SDS011;45115;52.002;4.686;2022-08-04T15:11:20;3.55;;;2.35;;
59336;SDS011;45115;52.002;4.686;2022-08-04T15:13:47;3.67;;;2.20;;
59336;SDS011;45115;52.002;4.686;2022-08-04T15:16:14;6.13;;;2.72;;
59336;SDS011;45115;52.002;4.686;2022-08-04T15:18:40;4.53;;;2.40;;
59336;SDS011;45115;52.002;4.686;2022-08-04T15:21:07;5.65;;;2.70;;
59336;SDS011;45115;52.002;4.686;2022-08-04T15:23:35;4.55;;;2.58;;
59336;SDS011;45115;52.002;4.686;2022-08-04T15:26:03;4.75;;;2.03;;
59336;SDS011;45115;52.002;4.686;2022-08-04T15:28:32;2.85;;;2.25;;
59336;SDS011;45115;52.002;4.686;2022-08-04T15:31:02;5.90;;;2.20;;
59336;SDS011;45115;52.002;4.686;2022-08-04T15:33:30;5.38;;;2.33;;
59336;SDS011;45115;52.002;4.686;2022-08-04T15:36:08;3.80;;;2.40;;
59336;SDS011;45115;52.002;4.686;2022-08-04T15:38:43;4.70;;;2.55;;
59336;SDS011;45115;52.002;4.686;2022-08-04T15:41:22;4.55;;;2.35;;
59336;SDS011;45115;52.002;4.686;2022-08-04T15:43:59;4.28;;;2.17;;
59336;SDS011;45115;52.002;4.686;2022-08-04T15:49:37;6.93;;;2.55;;
59336;SDS011;45115;52.002;4.686;2022-08-04T15:52:05;4.20;;;2.30;;
59336;SDS011;45115;52.002;4.686;2022-08-04T15:54:34;6.33;;;3.03;;
59336;SDS011;45115;52.002;4.686;2022-08-04T15:57:05;4.38;;;2.30;;
59336;SDS011;45115;52.002;4.686;2022-08-04T16:02:39;4.13;;;2.40;;
59336;SDS011;45115;52.002;4.686;2022-08-04T16:08:07;4.90;;;2.47;;